Kezdőlap
METAR-TAF:

METAR-TAF

Repülőterek :

Marshall County Airport

Lacon, Illinois, Amerikai Egyesült Államok

földrajzi szélesség: 41-01-09N, földrajzi hosszúság: 089-23-11W, magasság: 173 m

Jelenlegi meteorológiai megfigyelések

A jelentés 39 perccel ezelõtt készült, 05:35 UTC
Délnyugati szél 4 kt
Hőmérséklet 3°C
Páratartalom 100%
Légköri nyomás 1010 hPa
Látótávolság: 2.0 km
Borult 400 lábon
Párásság

METAR: KC75 180535Z AUTO 22004KT 1 1/4SM BR OVC004 03/03 A2983 RMK AO2 T00250025

Idő: 00:14 (06:14 UTC)


TAF: hiányzik

Meteorológiai megfigyelések és előrejelzések több, mint 4000 repülőtéren (METAR és TAF jelentéseket).

A térképen piros és sárga pontok jelzik az elérhető meteorológiai állomásokat.

Mozgassa az egeret a pont fölött, hogy megjelenjen az állomás neve.

Azután kattintson az időjárási megfigyelések és előrejelzések megtekintéséhez.

A térkép megváltoztatása: kattintson a fekete keresztel jelölt zöld gombra ráközelítéshez, a vonallal jelölt zöld gombra távolításhoz, vagy a zöld nyilakra a szomszédos térképek eléréséhez.


METAR-TAF: